Time;durP1;ratioP1;P1;durP2;ratioP2;P2;SDS_P1;SDS_P2;PMS_P1;PMS_P2;Temp;Humidity;BMP_temperature;BMP_pressure;BME280_temperature;BME280_humidity;BME280_pressure;Samples;Min_cycle;Max_cycle;Signal;HPM_P1;HPM_P2
2021/03/18 00:02:02;;;;;;;12.57;11.13;;;;;;;;;;10351713;28;20319;-58
2021/03/18 00:07:00;;;;;;;16.27;8.32;;;;;;;;;;10354249;28;20068;-56
2021/03/18 00:11:58;;;;;;;12.40;7.80;;;;;;;;;;10356166;28;20075;-58
2021/03/18 00:16:55;;;;;;;6.60;4.88;;;;;;;;;;10349859;28;20149;-58
2021/03/18 00:21:53;;;;;;;5.72;5.22;;;;;;;;;;10351625;28;20412;-58
2021/03/18 00:26:51;;;;;;;4.82;4.28;;;;;;;;;;10349650;28;20067;-59
2021/03/18 00:31:48;;;;;;;5.80;5.20;;;;;;;;;;10347625;28;20075;-57
2021/03/18 00:36:46;;;;;;;6.60;6.00;;;;;;;;;;10354565;28;20079;-56
2021/03/18 00:41:43;;;;;;;11.27;10.18;;;;;;;;;;10351736;28;20070;-58
2021/03/18 00:46:41;;;;;;;16.13;14.52;;;;;;;;;;10354884;28;20485;-58
2021/03/18 00:51:39;;;;;;;19.58;17.75;;;;;;;;;;10353815;28;20072;-56
2021/03/18 00:56:36;;;;;;;9.68;8.82;;;;;;;;;;10350282;28;20076;-58
2021/03/18 01:01:34;;;;;;;5.00;4.60;;;;;;;;;;10345672;28;20149;-54
2021/03/18 01:06:34;;;;;;;15.45;14.05;;;;;;;;;;10342983;28;20076;-55
2021/03/18 01:11:34;;;;;;;4.63;4.22;;;;;;;;;;10357106;28;20081;-59
2021/03/18 01:16:33;;;;;;;22.83;20.73;;;;;;;;;;10357273;28;20079;-53
2021/03/18 01:21:31;;;;;;;6.03;5.45;;;;;;;;;;10361978;28;20060;-58
2021/03/18 01:26:30;;;;;;;10.18;9.27;;;;;;;;;;10357518;28;20074;-56
2021/03/18 01:31:27;;;;;;;6.10;5.50;;;;;;;;;;10357928;28;20071;-56
2021/03/18 01:36:25;;;;;;;6.90;6.30;;;;;;;;;;10359816;28;20079;-57
2021/03/18 01:41:23;;;;;;;3.85;3.55;;;;;;;;;;10359420;28;20169;-55
2021/03/18 01:46:21;;;;;;;2.80;2.60;;;;;;;;;;10357498;28;20067;-54
2021/03/18 01:51:20;;;;;;;2.70;2.50;;;;;;;;;;10354886;28;20094;-57
2021/03/18 01:56:17;;;;;;;3.10;2.90;;;;;;;;;;10353658;28;20091;-56
2021/03/18 02:01:18;;;;;;;3.30;3.00;;;;;;;;;;10355851;28;20075;-57
2021/03/18 02:06:17;;;;;;;3.35;3.05;;;;;;;;;;10354862;28;20489;-57
2021/03/18 02:11:14;;;;;;;22.10;12.40;;;;;;;;;;10360967;28;20084;-56
2021/03/18 02:16:12;;;;;;;3.83;3.53;;;;;;;;;;10361075;28;20453;-57
2021/03/18 02:21:21;;;;;;;3.10;2.80;;;;;;;;;;10359890;28;20064;-55
2021/03/18 02:26:29;;;;;;;3.53;3.22;;;;;;;;;;10360918;28;20072;-55
2021/03/18 02:31:33;;;;;;;3.08;2.72;;;;;;;;;;10357429;28;20554;-56
2021/03/18 02:36:34;;;;;;;3.63;2.83;;;;;;;;;;10359260;28;20071;-54
2021/03/18 02:41:32;;;;;;;2.97;2.67;;;;;;;;;;10360297;28;20065;-56
2021/03/18 02:46:30;;;;;;;3.55;3.25;;;;;;;;;;10360055;28;20453;-57
2021/03/18 02:51:27;;;;;;;36.05;21.15;;;;;;;;;;10359567;28;20086;-57
2021/03/18 02:56:26;;;;;;;3.33;3.03;;;;;;;;;;10359399;28;20064;-57
2021/03/18 03:01:23;;;;;;;3.72;3.13;;;;;;;;;;10358372;28;20064;-56
2021/03/18 03:06:21;;;;;;;3.92;3.63;;;;;;;;;;10359217;28;20457;-56
2021/03/18 03:11:20;;;;;;;4.03;3.63;;;;;;;;;;10358169;28;20082;-58
2021/03/18 03:16:23;;;;;;;4.28;3.88;;;;;;;;;;10358563;28;20079;-55
2021/03/18 03:21:22;;;;;;;3.72;3.42;;;;;;;;;;10358738;28;20079;-58
2021/03/18 03:26:20;;;;;;;4.40;4.00;;;;;;;;;;10358202;28;20470;-54
2021/03/18 03:31:19;;;;;;;12.77;8.57;;;;;;;;;;10356686;28;20540;-55
2021/03/18 03:36:31;;;;;;;11.88;10.68;;;;;;;;;;10357009;28;20071;-56
2021/03/18 03:41:28;;;;;;;10.13;9.13;;;;;;;;;;10357738;28;20064;-56
2021/03/18 03:46:26;;;;;;;14.43;13.13;;;;;;;;;;10357352;28;20067;-56
2021/03/18 03:51:29;;;;;;;6.50;5.90;;;;;;;;;;10357551;28;20082;-55
2021/03/18 03:56:29;;;;;;;8.68;6.47;;;;;;;;;;10357238;28;20082;-55
2021/03/18 04:01:28;;;;;;;7.68;5.90;;;;;;;;;;10353195;28;20063;-53
2021/03/18 04:06:27;;;;;;;6.13;4.65;;;;;;;;;;10356299;28;20067;-57
2021/03/18 04:11:24;;;;;;;5.93;5.32;;;;;;;;;;10353775;28;20086;-58
2021/03/18 04:16:23;;;;;;;6.60;5.90;;;;;;;;;;10353603;28;20067;-58
2021/03/18 04:21:22;;;;;;;7.25;6.07;;;;;;;;;;10348212;28;20067;-57
2021/03/18 04:26:21;;;;;;;6.15;5.50;;;;;;;;;;10352289;28;20078;-58
2021/03/18 04:31:19;;;;;;;9.82;7.68;;;;;;;;;;10349140;28;20080;-57
2021/03/18 04:36:16;;;;;;;11.77;8.65;;;;;;;;;;10354690;28;20071;-58
2021/03/18 04:41:15;;;;;;;11.27;8.40;;;;;;;;;;10353802;28;20073;-58
2021/03/18 04:46:12;;;;;;;14.27;8.55;;;;;;;;;;10354224;28;20540;-56
2021/03/18 04:51:10;;;;;;;18.52;9.90;;;;;;;;;;10353152;28;20113;-56
2021/03/18 04:56:08;;;;;;;14.57;11.45;;;;;;;;;;10351113;28;20071;-58
2021/03/18 05:01:06;;;;;;;11.77;8.77;;;;;;;;;;10350830;28;20071;-56
2021/03/18 05:06:04;;;;;;;10.93;8.25;;;;;;;;;;10348460;28;20083;-58
2021/03/18 05:11:01;;;;;;;12.90;9.68;;;;;;;;;;10352364;28;20078;-57
2021/03/18 05:15:59;;;;;;;14.30;10.70;;;;;;;;;;10354903;28;20082;-57
2021/03/18 05:20:58;;;;;;;10.85;8.45;;;;;;;;;;10355060;28;20464;-56
2021/03/18 05:25:55;;;;;;;13.95;10.45;;;;;;;;;;10355159;28;20079;-57
2021/03/18 05:30:53;;;;;;;25.42;16.05;;;;;;;;;;10353700;28;20082;-57
2021/03/18 05:35:50;;;;;;;17.95;12.05;;;;;;;;;;10354208;28;20068;-56
2021/03/18 05:40:55;;;;;;;26.75;19.35;;;;;;;;;;10352718;28;20062;-57
2021/03/18 05:45:53;;;;;;;11.40;9.65;;;;;;;;;;10354427;28;20069;-56
2021/03/18 05:50:51;;;;;;;14.50;11.15;;;;;;;;;;10354204;28;20485;-57
2021/03/18 05:55:49;;;;;;;20.05;16.10;;;;;;;;;;10353407;28;20158;-57
2021/03/18 06:00:49;;;;;;;14.27;12.00;;;;;;;;;;10358953;28;20069;-56
2021/03/18 06:05:47;;;;;;;16.13;12.93;;;;;;;;;;10361411;28;20462;-58
2021/03/18 06:10:44;;;;;;;15.23;11.10;;;;;;;;;;10361208;28;20827;-58
2021/03/18 06:15:41;;;;;;;16.33;12.18;;;;;;;;;;10360887;28;20072;-55
2021/03/18 06:20:39;;;;;;;47.55;32.35;;;;;;;;;;10360509;28;20507;-55
2021/03/18 06:25:37;;;;;;;31.02;21.50;;;;;;;;;;10360591;28;20071;-56
2021/03/18 06:30:34;;;;;;;21.42;18.30;;;;;;;;;;10356999;28;20517;-56
2021/03/18 06:35:37;;;;;;;18.70;13.18;;;;;;;;;;10356379;28;20067;-56
2021/03/18 06:40:38;;;;;;;14.65;12.48;;;;;;;;;;10358013;28;20074;-57
2021/03/18 06:45:36;;;;;;;29.98;18.77;;;;;;;;;;10357249;28;20532;-58
2021/03/18 06:50:35;;;;;;;31.13;20.60;;;;;;;;;;10357181;28;20076;-58
2021/03/18 06:55:33;;;;;;;15.23;11.13;;;;;;;;;;10359517;28;20501;-57
2021/03/18 07:00:35;;;;;;;14.52;12.20;;;;;;;;;;10359261;28;20060;-56
2021/03/18 07:05:37;;;;;;;16.90;13.60;;;;;;;;;;10358091;28;20536;-56
2021/03/18 07:10:36;;;;;;;16.52;12.30;;;;;;;;;;10358578;28;20095;-56
2021/03/18 07:15:37;;;;;;;29.95;26.92;;;;;;;;;;10358821;28;20068;-58
2021/03/18 07:20:35;;;;;;;17.88;16.08;;;;;;;;;;10358608;28;20150;-59
2021/03/18 07:25:32;;;;;;;10.23;9.10;;;;;;;;;;10358338;28;20075;-58
2021/03/18 07:30:31;;;;;;;14.65;12.25;;;;;;;;;;10357350;28;20087;-56
2021/03/18 07:35:29;;;;;;;34.88;19.88;;;;;;;;;;10357552;28;20052;-58
2021/03/18 07:40:28;;;;;;;23.65;17.70;;;;;;;;;;10358409;28;20091;-58
2021/03/18 07:45:26;;;;;;;12.40;11.02;;;;;;;;;;10355723;28;20072;-56
2021/03/18 07:50:27;;;;;;;13.48;11.45;;;;;;;;;;10356343;28;20083;-57
2021/03/18 07:55:25;;;;;;;22.48;17.80;;;;;;;;;;10356046;28;20540;-56
2021/03/18 08:00:24;;;;;;;18.13;13.82;;;;;;;;;;10355935;28;20494;-58
2021/03/18 08:05:36;;;;;;;16.55;13.35;;;;;;;;;;10358147;28;20067;-57
2021/03/18 08:10:37;;;;;;;29.35;23.73;;;;;;;;;;10356556;28;20090;-57
2021/03/18 08:15:45;;;;;;;28.20;19.35;;;;;;;;;;10357921;28;20068;-57
2021/03/18 08:20:58;;;;;;;16.25;14.65;;;;;;;;;;10357059;28;20535;-55
2021/03/18 08:25:56;;;;;;;15.45;13.07;;;;;;;;;;10356403;28;20040;-57
2021/03/18 08:30:56;;;;;;;19.45;16.88;;;;;;;;;;10357215;28;20331;-57
2021/03/18 08:36:18;;;;;;;24.45;17.58;;;;;;;;;;10354430;28;20438;-59
2021/03/18 08:41:25;;;;;;;16.55;14.68;;;;;;;;;;10357654;28;20075;-57
2021/03/18 08:46:37;;;;;;;15.52;13.25;;;;;;;;;;10356469;28;20051;-57
2021/03/18 08:51:40;;;;;;;19.27;15.98;;;;;;;;;;10354299;28;20083;-57
2021/03/18 08:56:42;;;;;;;50.70;36.92;;;;;;;;;;10355477;28;20052;-56
2021/03/18 09:01:39;;;;;;;21.42;17.52;;;;;;;;;;10357186;28;20460;-56
2021/03/18 09:06:37;;;;;;;30.15;22.90;;;;;;;;;;10355989;28;20063;-57
2021/03/18 09:11:36;;;;;;;15.02;12.43;;;;;;;;;;10354105;28;20477;-56
2021/03/18 09:16:33;;;;;;;33.35;22.33;;;;;;;;;;10357091;28;20531;-59
2021/03/18 09:21:38;;;;;;;19.45;15.35;;;;;;;;;;10356776;28;20320;-57
2021/03/18 09:26:36;;;;;;;17.33;15.17;;;;;;;;;;10354216;28;20040;-58
2021/03/18 09:31:34;;;;;;;20.55;17.60;;;;;;;;;;10359889;28;20142;-55
2021/03/18 09:36:32;;;;;;;25.95;20.15;;;;;;;;;;10364860;28;20499;-55
2021/03/18 09:41:31;;;;;;;13.52;12.02;;;;;;;;;;10363055;28;20063;-56
2021/03/18 09:46:29;;;;;;;24.67;20.40;;;;;;;;;;10364188;28;20040;-56
2021/03/18 09:51:27;;;;;;;15.38;12.23;;;;;;;;;;10363782;28;20075;-56
2021/03/18 09:56:24;;;;;;;27.60;17.40;;;;;;;;;;10362801;28;20075;-58
2021/03/18 10:01:22;;;;;;;15.40;12.45;;;;;;;;;;10359501;28;20053;-58
2021/03/18 10:06:27;;;;;;;26.02;19.63;;;;;;;;;;10363344;28;20048;-56
2021/03/18 10:11:33;;;;;;;23.23;17.75;;;;;;;;;;10360875;28;20082;-58
2021/03/18 10:16:31;;;;;;;23.27;18.50;;;;;;;;;;10362909;28;20489;-54
2021/03/18 10:21:29;;;;;;;28.95;20.10;;;;;;;;;;10362908;28;20040;-58
2021/03/18 10:26:27;;;;;;;16.15;14.23;;;;;;;;;;10361352;28;20060;-58
2021/03/18 10:31:24;;;;;;;35.00;28.48;;;;;;;;;;10358443;28;20118;-59
2021/03/18 10:36:33;;;;;;;28.30;21.58;;;;;;;;;;10359298;28;20052;-58
2021/03/18 10:41:30;;;;;;;50.55;32.25;;;;;;;;;;10359502;28;20085;-58
2021/03/18 10:46:29;;;;;;;33.35;23.02;;;;;;;;;;10360691;28;20063;-58
2021/03/18 10:51:26;;;;;;;66.68;41.58;;;;;;;;;;10358877;28;20079;-58
2021/03/18 10:56:25;;;;;;;22.85;18.08;;;;;;;;;;10361257;28;20040;-58
2021/03/18 11:01:23;;;;;;;28.38;19.45;;;;;;;;;;10361209;28;20510;-57
2021/03/18 11:06:21;;;;;;;13.93;12.48;;;;;;;;;;10360839;28;20060;-57
2021/03/18 11:11:20;;;;;;;20.95;17.00;;;;;;;;;;10360601;28;20071;-57
2021/03/18 11:16:21;;;;;;;23.85;17.30;;;;;;;;;;10359632;28;20076;-57
2021/03/18 11:21:20;;;;;;;38.13;26.50;;;;;;;;;;10360155;28;20043;-56
2021/03/18 11:26:19;;;;;;;39.63;26.08;;;;;;;;;;10360096;28;20067;-57
2021/03/18 11:31:16;;;;;;;32.03;22.38;;;;;;;;;;10358720;28;20079;-57
2021/03/18 11:36:15;;;;;;;45.40;33.22;;;;;;;;;;10357300;28;20048;-57
2021/03/18 11:41:13;;;;;;;61.20;37.95;;;;;;;;;;10357570;28;20170;-58
2021/03/18 11:46:10;;;;;;;23.17;17.58;;;;;;;;;;10359242;28;20462;-57
2021/03/18 11:51:08;;;;;;;23.40;20.13;;;;;;;;;;10359613;28;20071;-58
2021/03/18 11:56:06;;;;;;;22.00;19.33;;;;;;;;;;10358469;28;20062;-56
2021/03/18 12:01:03;;;;;;;18.00;16.13;;;;;;;;;;10357074;28;20051;-55
2021/03/18 12:06:01;;;;;;;26.02;20.45;;;;;;;;;;10358508;28;20043;-58
2021/03/18 12:10:58;;;;;;;36.47;25.88;;;;;;;;;;10358921;28;20072;-56
2021/03/18 12:15:56;;;;;;;21.13;17.90;;;;;;;;;;10357970;28;20080;-57
2021/03/18 12:20:54;;;;;;;33.72;27.45;;;;;;;;;;10357895;28;20071;-58
2021/03/18 12:25:52;;;;;;;42.03;31.95;;;;;;;;;;10357843;28;20469;-57
2021/03/18 12:30:50;;;;;;;27.95;20.38;;;;;;;;;;10356770;28;20537;-57
2021/03/18 12:35:48;;;;;;;139.27;97.97;;;;;;;;;;10357827;28;20067;-56
2021/03/18 12:40:46;;;;;;;86.40;62.75;;;;;;;;;;10357749;28;20138;-56
2021/03/18 12:45:43;;;;;;;37.55;27.42;;;;;;;;;;10357502;28;20063;-56
2021/03/18 12:50:41;;;;;;;30.42;22.50;;;;;;;;;;10353616;28;20064;-56
2021/03/18 12:55:39;;;;;;;26.20;21.33;;;;;;;;;;10356985;28;20044;-58
2021/03/18 13:00:37;;;;;;;20.38;15.98;;;;;;;;;;10357055;28;20040;-56
2021/03/18 13:05:34;;;;;;;84.63;56.03;;;;;;;;;;10360001;28;20052;-57
2021/03/18 13:10:32;;;;;;;28.50;23.25;;;;;;;;;;10365294;28;20169;-56
2021/03/18 13:15:30;;;;;;;55.88;43.33;;;;;;;;;;10365547;28;20508;-56
2021/03/18 13:20:27;;;;;;;22.23;18.58;;;;;;;;;;10365054;28;20047;-56
2021/03/18 13:25:25;;;;;;;32.88;27.10;;;;;;;;;;10364613;28;20043;-56
2021/03/18 13:30:23;;;;;;;28.02;21.85;;;;;;;;;;10364204;28;20083;-58
2021/03/18 13:35:23;;;;;;;22.63;17.70;;;;;;;;;;10364043;28;20477;-58
2021/03/18 13:40:22;;;;;;;15.38;12.88;;;;;;;;;;10364503;28;20040;-57
2021/03/18 13:45:19;;;;;;;29.60;20.58;;;;;;;;;;10363877;28;20075;-58
2021/03/18 13:50:17;;;;;;;32.25;25.27;;;;;;;;;;10363627;28;20068;-58
2021/03/18 13:55:15;;;;;;;30.50;24.38;;;;;;;;;;10363127;28;20076;-57
2021/03/18 14:00:13;;;;;;;64.07;42.50;;;;;;;;;;10363618;28;20044;-58
2021/03/18 14:05:11;;;;;;;153.55;109.78;;;;;;;;;;10360572;28;20122;-57
2021/03/18 14:10:09;;;;;;;56.83;38.13;;;;;;;;;;10362766;28;20333;-57
2021/03/18 14:15:09;;;;;;;55.10;38.03;;;;;;;;;;10362288;28;20070;-57
2021/03/18 14:20:08;;;;;;;203.23;122.63;;;;;;;;;;10361691;28;20091;-57
2021/03/18 14:25:07;;;;;;;251.85;130.50;;;;;;;;;;10362075;28;20146;-57
2021/03/18 14:30:05;;;;;;;265.27;106.45;;;;;;;;;;10361434;28;20040;-58
2021/03/18 14:35:04;;;;;;;23.25;20.85;;;;;;;;;;10361642;28;20032;-57
2021/03/18 14:40:01;;;;;;;62.63;35.30;;;;;;;;;;10361768;28;20410;-57
2021/03/18 14:44:59;;;;;;;35.13;26.00;;;;;;;;;;10361315;28;20067;-56
2021/03/18 14:50:09;;;;;;;35.03;26.88;;;;;;;;;;10360089;28;20171;-57
2021/03/18 14:55:07;;;;;;;188.07;80.72;;;;;;;;;;10361006;28;20044;-58
2021/03/18 15:00:04;;;;;;;64.28;41.50;;;;;;;;;;10360915;28;20040;-57
2021/03/18 15:05:02;;;;;;;47.60;30.25;;;;;;;;;;10360501;28;20032;-57
2021/03/18 15:10:00;;;;;;;171.43;81.80;;;;;;;;;;10357947;28;20040;-58
2021/03/18 15:14:58;;;;;;;135.40;82.93;;;;;;;;;;10360383;28;20458;-58
2021/03/18 15:19:55;;;;;;;24.85;17.13;;;;;;;;;;10359756;28;20063;-58
2021/03/18 15:24:52;;;;;;;48.20;31.98;;;;;;;;;;10359923;28;20059;-58
2021/03/18 15:29:50;;;;;;;142.63;73.55;;;;;;;;;;10358654;28;20505;-58
2021/03/18 15:34:48;;;;;;;105.47;58.42;;;;;;;;;;10357979;28;20079;-56
2021/03/18 15:39:45;;;;;;;36.35;31.25;;;;;;;;;;10358345;28;20047;-58
2021/03/18 15:44:42;;;;;;;28.60;22.98;;;;;;;;;;10356709;28;20051;-57
2021/03/18 15:49:40;;;;;;;51.70;39.17;;;;;;;;;;10359119;28;20413;-58
2021/03/18 15:54:38;;;;;;;24.77;20.30;;;;;;;;;;10356686;28;20098;-55
2021/03/18 15:59:35;;;;;;;31.02;26.63;;;;;;;;;;10358192;28;20067;-56
2021/03/18 16:04:33;;;;;;;34.53;28.98;;;;;;;;;;10351324;28;20068;-56
2021/03/18 16:09:32;;;;;;;81.15;59.60;;;;;;;;;;10343789;28;20051;-57
2021/03/18 16:14:29;;;;;;;65.03;48.65;;;;;;;;;;10347349;28;20094;-56
2021/03/18 16:19:26;;;;;;;75.97;50.47;;;;;;;;;;10349710;28;20481;-55
2021/03/18 16:24:24;;;;;;;100.40;71.45;;;;;;;;;;10349552;28;20074;-55
2021/03/18 16:29:22;;;;;;;146.02;90.90;;;;;;;;;;10343596;28;20083;-60
2021/03/18 16:34:19;;;;;;;56.58;42.00;;;;;;;;;;10340565;28;20060;-57
2021/03/18 16:39:16;;;;;;;28.83;24.65;;;;;;;;;;10342668;28;20477;-58
2021/03/18 16:44:14;;;;;;;20.48;18.08;;;;;;;;;;10343946;28;20500;-57
2021/03/18 16:49:12;;;;;;;63.00;37.22;;;;;;;;;;10347394;28;20064;-57
2021/03/18 16:54:10;;;;;;;35.53;30.30;;;;;;;;;;10353759;28;20064;-56
2021/03/18 16:59:07;;;;;;;21.95;18.60;;;;;;;;;;10343894;28;20083;-58
2021/03/18 17:04:05;;;;;;;53.85;45.25;;;;;;;;;;10351366;28;20083;-54
2021/03/18 17:09:05;;;;;;;39.28;29.52;;;;;;;;;;10347227;28;20066;-57
2021/03/18 17:14:03;;;;;;;32.28;24.60;;;;;;;;;;10352956;28;20059;-54
2021/03/18 17:19:01;;;;;;;48.10;32.42;;;;;;;;;;10355924;28;20070;-57
2021/03/18 17:23:58;;;;;;;52.45;38.55;;;;;;;;;;10354693;28;20072;-56
2021/03/18 17:28:57;;;;;;;36.17;26.20;;;;;;;;;;10353411;28;20080;-55
2021/03/18 17:33:55;;;;;;;53.75;37.28;;;;;;;;;;10353176;28;20474;-55
2021/03/18 17:38:53;;;;;;;20.20;16.75;;;;;;;;;;10355647;28;20060;-56
2021/03/18 17:43:51;;;;;;;21.10;17.55;;;;;;;;;;10355278;28;20493;-53
2021/03/18 17:48:50;;;;;;;16.35;14.65;;;;;;;;;;10354948;28;20361;-57
2021/03/18 17:53:51;;;;;;;15.10;12.10;;;;;;;;;;10361989;28;20091;-58
2021/03/18 17:58:49;;;;;;;26.60;19.08;;;;;;;;;;10360453;28;20529;-54
2021/03/18 18:03:49;;;;;;;32.17;21.63;;;;;;;;;;10362096;28;20051;-55
2021/03/18 18:08:47;;;;;;;27.27;19.98;;;;;;;;;;10360205;28;20082;-57
2021/03/18 18:13:44;;;;;;;47.15;30.88;;;;;;;;;;10352086;28;20068;-58
2021/03/18 18:18:41;;;;;;;73.53;46.97;;;;;;;;;;10345818;28;20083;-57
2021/03/18 18:23:39;;;;;;;65.38;40.78;;;;;;;;;;10354149;28;20056;-56
2021/03/18 18:28:37;;;;;;;55.67;36.85;;;;;;;;;;10346854;28;20068;-52
2021/03/18 18:33:35;;;;;;;213.68;126.55;;;;;;;;;;10346996;28;20079;-55
2021/03/18 18:38:32;;;;;;;27.85;24.40;;;;;;;;;;10357660;28;20068;-58
2021/03/18 18:43:30;;;;;;;36.65;26.13;;;;;;;;;;10359801;28;20067;-58
2021/03/18 18:48:30;;;;;;;44.63;29.05;;;;;;;;;;10360071;28;20425;-56
2021/03/18 18:53:29;;;;;;;24.63;20.33;;;;;;;;;;10348688;28;20064;-57
2021/03/18 18:58:26;;;;;;;27.65;22.30;;;;;;;;;;10338209;28;20518;-56
2021/03/18 19:03:25;;;;;;;32.33;25.58;;;;;;;;;;10347371;28;20072;-55
2021/03/18 19:08:22;;;;;;;24.02;19.02;;;;;;;;;;10338361;28;20070;-55
2021/03/18 19:13:20;;;;;;;38.75;31.92;;;;;;;;;;10349878;28;20067;-56
2021/03/18 19:18:17;;;;;;;38.42;28.27;;;;;;;;;;10349717;28;20484;-52
2021/03/18 19:23:16;;;;;;;33.58;27.48;;;;;;;;;;10354271;28;20594;-58
2021/03/18 19:28:14;;;;;;;44.22;33.60;;;;;;;;;;10348598;28;20085;-56
2021/03/18 19:33:12;;;;;;;24.10;19.48;;;;;;;;;;10338696;28;20075;-63
2021/03/18 19:38:10;;;;;;;32.90;25.08;;;;;;;;;;10358765;28;20071;-63
2021/03/18 19:43:10;;;;;;;29.65;19.65;;;;;;;;;;10338796;28;20067;-63
2021/03/18 19:48:10;;;;;;;23.83;16.73;;;;;;;;;;10358140;28;20412;-64
2021/03/18 19:53:07;;;;;;;40.95;27.60;;;;;;;;;;10358552;28;20079;-65
2021/03/18 19:58:05;;;;;;;41.92;29.13;;;;;;;;;;10355642;28;20075;-64
2021/03/18 20:03:04;;;;;;;53.13;31.42;;;;;;;;;;10352728;28;20056;-64
2021/03/18 20:08:01;;;;;;;25.70;19.83;;;;;;;;;;10350194;28;20067;-62
2021/03/18 20:12:59;;;;;;;34.70;22.13;;;;;;;;;;10339873;28;20064;-63
2021/03/18 20:17:56;;;;;;;20.73;15.35;;;;;;;;;;10335553;28;20075;-62
2021/03/18 20:22:55;;;;;;;29.77;18.33;;;;;;;;;;10337868;28;20516;-63
2021/03/18 20:28:13;;;;;;;33.38;19.85;;;;;;;;;;10350912;28;20051;-65
2021/03/18 20:33:11;;;;;;;50.08;27.33;;;;;;;;;;10351340;28;20087;-65
2021/03/18 20:38:11;;;;;;;49.70;34.55;;;;;;;;;;10348671;28;20074;-63
2021/03/18 20:43:08;;;;;;;59.25;40.63;;;;;;;;;;10328662;28;20177;-62
2021/03/18 20:48:07;;;;;;;72.63;38.80;;;;;;;;;;10340080;28;20082;-63
2021/03/18 20:53:04;;;;;;;32.33;19.38;;;;;;;;;;10350231;28;20068;-63
2021/03/18 20:58:04;;;;;;;40.28;24.45;;;;;;;;;;10346975;28;20072;-62
2021/03/18 21:03:02;;;;;;;26.38;16.70;;;;;;;;;;10347860;28;20079;-64
2021/03/18 21:07:59;;;;;;;30.48;18.70;;;;;;;;;;10348035;28;20059;-64
2021/03/18 21:12:57;;;;;;;21.60;15.15;;;;;;;;;;10349687;28;20508;-64
2021/03/18 21:17:55;;;;;;;17.60;11.77;;;;;;;;;;10353739;28;20044;-63
2021/03/18 21:22:53;;;;;;;15.30;11.23;;;;;;;;;;10353596;28;20043;-63
2021/03/18 21:27:50;;;;;;;16.00;11.32;;;;;;;;;;10351915;28;20040;-64
2021/03/18 21:32:48;;;;;;;18.75;13.55;;;;;;;;;;10363632;28;20078;-64
2021/03/18 21:37:47;;;;;;;18.17;14.85;;;;;;;;;;10361599;28;20048;-64
2021/03/18 21:42:45;;;;;;;17.55;12.75;;;;;;;;;;10361478;28;20032;-65
2021/03/18 21:47:42;;;;;;;24.70;17.08;;;;;;;;;;10354316;28;20079;-64
2021/03/18 21:52:41;;;;;;;38.58;23.45;;;;;;;;;;10354351;28;20106;-63
2021/03/18 21:57:41;;;;;;;45.58;25.02;;;;;;;;;;10346923;28;20513;-64
2021/03/18 22:02:38;;;;;;;36.78;22.13;;;;;;;;;;10342397;28;20071;-64
2021/03/18 22:07:37;;;;;;;120.13;65.30;;;;;;;;;;10346992;28;20067;-64
2021/03/18 22:12:34;;;;;;;22.52;12.10;;;;;;;;;;10340475;28;20078;-64
2021/03/18 22:17:33;;;;;;;37.35;15.82;;;;;;;;;;10352335;28;20048;-62
2021/03/18 22:22:30;;;;;;;82.30;26.60;;;;;;;;;;10361611;28;20075;-63
2021/03/18 22:27:29;;;;;;;32.13;16.25;;;;;;;;;;10361553;28;20520;-64
2021/03/18 22:32:27;;;;;;;17.48;12.20;;;;;;;;;;10360256;28;20084;-64
2021/03/18 22:37:25;;;;;;;37.30;20.10;;;;;;;;;;10360390;28;20047;-64
2021/03/18 22:42:23;;;;;;;14.48;11.15;;;;;;;;;;10360880;28;20059;-64
2021/03/18 22:47:21;;;;;;;33.60;23.17;;;;;;;;;;10360777;28;20068;-64
2021/03/18 22:52:18;;;;;;;24.27;17.58;;;;;;;;;;10360256;28;20067;-64
2021/03/18 22:57:16;;;;;;;20.95;16.98;;;;;;;;;;10358363;28;20079;-65
2021/03/18 23:02:14;;;;;;;11.45;10.00;;;;;;;;;;10357556;28;20044;-64
2021/03/18 23:07:11;;;;;;;12.68;10.43;;;;;;;;;;10359624;28;20127;-64
2021/03/18 23:12:08;;;;;;;13.52;11.57;;;;;;;;;;10356043;28;20071;-64
2021/03/18 23:17:17;;;;;;;10.25;9.00;;;;;;;;;;10359916;28;20063;-64
2021/03/18 23:22:16;;;;;;;19.30;16.85;;;;;;;;;;10354413;28;20055;-63
2021/03/18 23:27:13;;;;;;;15.77;14.10;;;;;;;;;;10359352;28;20074;-64
2021/03/18 23:32:12;;;;;;;13.68;12.38;;;;;;;;;;10358502;28;20087;-64
2021/03/18 23:37:10;;;;;;;22.10;20.08;;;;;;;;;;10358989;28;20098;-62
2021/03/18 23:42:07;;;;;;;12.73;11.48;;;;;;;;;;10358415;28;20512;-62
2021/03/18 23:47:05;;;;;;;10.48;9.38;;;;;;;;;;10358675;28;20051;-63
2021/03/18 23:52:04;;;;;;;10.68;9.68;;;;;;;;;;10355622;28;20067;-63
2021/03/18 23:57:02;;;;;;;27.92;25.48;;;;;;;;;;10358010;28;20072;-63
